createdAt,value
2019-02-25T00:00:19.855Z,101528.95
2019-02-25T00:02:48.735Z,101537.78
2019-02-25T00:05:17.463Z,101540.02
2019-02-25T00:07:46.490Z,101537.61
2019-02-25T00:10:15.237Z,101535.18
2019-02-25T00:12:43.967Z,101535.18
2019-02-25T00:15:12.845Z,101533.76
2019-02-25T00:17:41.763Z,101531.53
2019-02-25T00:20:11.801Z,101530.43
2019-02-25T00:22:40.673Z,101533.29
2019-02-25T00:25:13.422Z,101527.35
2019-02-25T00:27:42.151Z,101528.62
2019-02-25T00:30:13.003Z,101523.81
2019-02-25T00:32:41.727Z,101531.38
2019-02-25T00:35:10.456Z,101522.09
2019-02-25T00:37:39.213Z,101519.03
2019-02-25T00:40:09.932Z,101515.31
2019-02-25T00:42:38.665Z,101517.08
2019-02-25T00:45:13.062Z,101516.62
2019-02-25T00:47:41.809Z,101508.59
2019-02-25T00:50:21.005Z,101506.83
2019-02-25T00:52:49.839Z,101507.14
2019-02-25T00:55:18.758Z,101505.53
2019-02-25T00:57:47.554Z,101505.59
2019-02-25T01:00:18.611Z,101504.64
2019-02-25T01:02:47.346Z,101502.37
2019-02-25T01:05:16.786Z,101501.89
2019-02-25T01:07:45.503Z,101502.08
2019-02-25T01:10:15.134Z,101493.59
2019-02-25T01:12:45.844Z,101492.48
2019-02-25T01:15:15.276Z,101491.38
2019-02-25T01:17:43.999Z,101495.41
2019-02-25T01:20:15.298Z,101499.88
2019-02-25T01:22:44.118Z,101497.13
2019-02-25T01:25:17.599Z,101492.68
2019-02-25T01:27:46.559Z,101487.38
2019-02-25T01:30:19.700Z,101491.55
2019-02-25T01:32:48.434Z,101489.17
2019-02-25T01:35:17.607Z,101481.95
2019-02-25T01:37:46.331Z,101477.64
2019-02-25T01:40:15.453Z,101479.39
2019-02-25T01:42:44.329Z,101484.70
2019-02-25T01:45:15.728Z,101476.20
2019-02-25T01:47:44.450Z,101480.53
2019-02-25T01:50:13.232Z,101476.98
2019-02-25T01:52:41.957Z,101481.95
2019-02-25T01:55:12.388Z,101475.72
2019-02-25T01:57:41.293Z,101469.78
2019-02-25T02:00:15.479Z,101469.00
2019-02-25T02:02:44.203Z,101475.88
2019-02-25T02:05:13.113Z,101469.66
2019-02-25T02:07:41.828Z,101475.23
2019-02-25T02:10:17.516Z,101477.16
2019-02-25T02:12:46.350Z,101475.09
2019-02-25T02:15:16.775Z,101476.69
2019-02-25T02:17:45.670Z,101480.05
2019-02-25T02:20:16.299Z,101467.08
2019-02-25T02:22:45.030Z,101473.19
2019-02-25T02:25:14.386Z,101473.31
2019-02-25T02:27:43.117Z,101469.80
2019-02-25T02:30:22.184Z,101468.53
2019-02-25T02:32:50.908Z,101469.82
2019-02-25T02:35:19.627Z,101472.38
2019-02-25T02:37:48.516Z,101469.64
2019-02-25T02:40:17.248Z,101469.64
2019-02-25T02:43:00.156Z,101468.50
2019-02-25T02:45:34.613Z,101464.20
2019-02-25T02:48:09.579Z,101468.02
2019-02-25T02:50:38.368Z,101456.30
2019-02-25T02:53:07.114Z,101467.04
2019-02-25T02:55:36.273Z,101457.91
2019-02-25T02:58:05.096Z,101462.23
2019-02-25T03:00:33.923Z,101466.08
2019-02-25T03:03:02.813Z,101466.08
2019-02-25T03:05:31.573Z,101466.08
2019-02-25T03:08:00.376Z,101471.67
2019-02-25T03:10:29.268Z,101471.98
2019-02-25T03:12:58.000Z,101470.25
2019-02-25T03:15:26.752Z,101469.94
2019-02-25T03:17:55.502Z,101474.89
2019-02-25T03:20:24.231Z,101476.52
2019-02-25T03:22:52.957Z,101483.71
2019-02-25T03:25:21.829Z,101476.32
2019-02-25T03:27:50.553Z,101476.67
2019-02-25T03:30:20.920Z,101477.64
2019-02-25T03:32:50.668Z,101482.27
2019-02-25T03:35:19.548Z,101462.91
2019-02-25T03:37:48.303Z,101469.64
2019-02-25T03:40:19.518Z,101465.16
2019-02-25T03:42:48.221Z,101465.16
2019-02-25T03:45:18.548Z,101468.06
2019-02-25T03:47:47.306Z,101470.61
2019-02-25T03:50:16.039Z,101470.30
2019-02-25T03:52:44.764Z,101473.66
2019-02-25T03:55:22.807Z,101473.66
2019-02-25T03:57:51.658Z,101470.94
2019-02-25T04:00:22.825Z,101470.47
2019-02-25T04:02:53.808Z,101470.47
2019-02-25T04:05:22.527Z,101479.26
2019-02-25T04:07:51.254Z,101476.87
2019-02-25T04:10:20.285Z,101476.87
2019-02-25T04:12:49.009Z,101483.11
2019-02-25T04:15:26.406Z,101491.09
2019-02-25T04:17:55.128Z,101480.22
2019-02-25T04:20:23.852Z,101483.75
2019-02-25T04:22:52.621Z,101483.75
2019-02-25T04:25:21.345Z,101485.97
2019-02-25T04:27:50.090Z,101491.09
2019-02-25T04:30:19.327Z,101491.09
2019-02-25T04:32:48.050Z,101492.04
2019-02-25T04:35:16.799Z,101492.04
2019-02-25T04:37:45.691Z,101487.58
2019-02-25T04:40:15.075Z,101494.77
2019-02-25T04:42:43.997Z,101494.77
2019-02-25T04:45:18.220Z,101501.19
2019-02-25T04:47:46.951Z,101501.18
2019-02-25T04:50:15.679Z,101501.19
2019-02-25T04:52:50.467Z,101489.81
2019-02-25T04:55:19.196Z,101496.22
2019-02-25T04:57:47.920Z,101496.22
2019-02-25T05:00:19.288Z,101498.78
2019-02-25T05:02:48.022Z,101502.95
2019-02-25T05:05:16.748Z,101502.95
2019-02-25T05:07:45.554Z,101501.66
2019-02-25T05:10:17.926Z,101501.66
2019-02-25T05:12:51.036Z,101503.74
2019-02-25T05:15:21.348Z,101505.19
2019-02-25T05:17:50.073Z,101505.19
2019-02-25T05:20:19.266Z,101500.36
2019-02-25T05:22:47.992Z,101467.08
2019-02-25T05:25:16.722Z,101502.31
2019-02-25T05:27:45.719Z,101498.15
2019-02-25T05:30:15.527Z,101498.15
2019-02-25T05:32:44.266Z,101503.89
2019-02-25T05:35:14.597Z,101500.69
2019-02-25T05:37:43.324Z,101502.13
2019-02-25T05:40:14.975Z,101502.13
2019-02-25T05:42:43.973Z,101505.96
2019-02-25T05:45:14.111Z,101501.95
2019-02-25T05:47:42.837Z,101506.79
2019-02-25T05:50:16.735Z,101504.37
2019-02-25T05:52:45.457Z,101504.37
2019-02-25T05:55:16.371Z,101501.66
2019-02-25T05:57:45.378Z,101501.66
2019-02-25T06:00:18.592Z,101497.33
2019-02-25T06:02:47.332Z,101503.75
2019-02-25T06:05:16.555Z,101503.75
2019-02-25T06:07:45.287Z,101506.47
2019-02-25T06:10:14.816Z,101506.00
2019-02-25T06:12:50.947Z,101510.95
2019-02-25T06:15:20.619Z,101504.86
2019-02-25T06:17:49.353Z,101504.86
2019-02-25T06:20:18.849Z,101511.91
2019-02-25T06:22:47.585Z,101514.45
2019-02-25T06:25:17.331Z,101507.09
2019-02-25T06:27:46.500Z,101501.80
2019-02-25T06:30:17.731Z,101507.87
2019-02-25T06:32:46.465Z,101504.84
2019-02-25T06:35:15.324Z,101517.30
2019-02-25T06:37:44.054Z,101517.30
2019-02-25T06:40:20.292Z,101509.47
2019-02-25T06:42:49.264Z,101513.56
2019-02-25T06:45:23.435Z,101505.50
2019-02-25T06:47:52.546Z,101497.11
2019-02-25T06:50:21.326Z,101500.40
2019-02-25T06:52:50.072Z,101494.70
2019-02-25T06:55:18.798Z,101503.83
2019-02-25T06:57:47.576Z,101508.27
2019-02-25T07:00:18.743Z,101505.86
2019-02-25T07:02:47.603Z,101511.44
2019-02-25T07:05:21.156Z,101504.13
2019-02-25T07:07:51.469Z,101497.86
2019-02-25T07:10:24.456Z,101500.03
2019-02-25T07:12:54.910Z,101496.06
2019-02-25T07:15:31.209Z,101496.71
2019-02-25T07:18:07.362Z,101496.28
2019-02-25T07:20:46.420Z,101494.92
2019-02-25T07:23:17.937Z,101497.20
2019-02-25T07:25:54.089Z,101498.83
2019-02-25T07:28:24.425Z,101498.92
2019-02-25T07:30:54.727Z,101504.44
2019-02-25T07:33:40.318Z,101492.73
2019-02-25T07:36:10.698Z,101492.73
2019-02-25T07:38:44.030Z,101503.07
2019-02-25T07:41:14.327Z,101495.74
2019-02-25T07:43:50.960Z,101501.64
2019-02-25T07:46:27.154Z,101500.22
2019-02-25T07:49:03.666Z,101500.41
2019-02-25T07:51:37.081Z,101496.89
2019-02-25T07:54:10.305Z,101500.98
2019-02-25T07:56:43.349Z,101500.59
2019-02-25T07:59:16.790Z,101499.70
2019-02-25T08:01:47.104Z,101509.25
2019-02-25T08:04:20.278Z,101508.92
2019-02-25T08:06:59.614Z,101508.70
2019-02-25T08:09:32.835Z,101512.79
2019-02-25T08:12:07.254Z,101512.48
2019-02-25T08:14:49.812Z,101507.13
2019-02-25T08:17:26.380Z,101508.98
2019-02-25T08:19:56.684Z,101496.52
2019-02-25T08:22:36.194Z,101493.33
2019-02-25T08:25:20.069Z,101493.33
2019-02-25T08:27:50.461Z,101486.14
2019-02-25T13:39:55.602Z,101189.34
2019-02-25T13:42:24.329Z,101189.37
2019-02-25T13:44:53.043Z,101183.16
2019-02-25T13:47:21.800Z,101184.17
2019-02-25T13:49:50.801Z,101174.11
2019-02-25T13:52:19.521Z,101176.81
2019-02-25T13:54:48.443Z,101171.89
2019-02-25T13:57:17.174Z,101169.55
2019-02-25T13:59:45.891Z,101172.94
2019-02-25T14:02:14.748Z,101173.46
2019-02-25T14:04:43.760Z,101168.27
2019-02-25T14:07:12.645Z,101165.31
2019-02-25T14:09:41.525Z,101169.22
2019-02-25T14:12:10.248Z,101173.48
2019-02-25T14:14:38.985Z,101169.52
2019-02-25T14:17:07.869Z,101167.24
2019-02-25T14:19:36.802Z,101157.89
2019-02-25T14:22:05.539Z,101153.95
2019-02-25T14:24:34.408Z,101153.45
2019-02-25T14:27:03.125Z,101158.29
2019-02-25T14:29:31.856Z,101150.26
2019-02-25T14:32:00.706Z,101144.31
2019-02-25T14:34:29.435Z,101142.02
2019-02-25T14:36:59.725Z,101132.69
2019-02-25T14:39:30.469Z,101125.81
2019-02-25T14:42:01.253Z,101132.48
2019-02-25T14:44:32.483Z,101135.88
2019-02-25T14:47:02.636Z,101128.81
2019-02-25T14:49:32.564Z,101130.62
2019-02-25T14:52:01.066Z,101124.75
2019-02-25T14:54:32.305Z,101120.85
2019-02-25T14:57:01.079Z,101121.25
2019-02-25T14:59:29.804Z,101123.65
2019-02-25T15:01:59.314Z,101126.82
2019-02-25T15:04:29.020Z,101124.78
2019-02-25T15:06:57.742Z,101126.25
2019-02-25T15:09:28.348Z,101115.73
2019-02-25T15:11:57.730Z,101119.30
2019-02-25T15:14:27.855Z,101119.52
2019-02-25T15:16:56.814Z,101115.36
2019-02-25T15:19:27.913Z,101113.99
2019-02-25T15:21:56.872Z,101114.87
2019-02-25T15:24:26.686Z,101105.50
2019-02-25T15:26:57.389Z,101099.62
2019-02-25T15:29:25.860Z,101106.08
2019-02-25T15:31:55.190Z,101106.02
2019-02-25T15:34:25.068Z,101108.01
2019-02-25T15:36:53.799Z,101098.48
2019-02-25T15:39:23.483Z,101097.80
2019-02-25T15:41:55.059Z,101086.73
2019-02-25T15:44:24.564Z,101077.14
2019-02-25T15:46:53.463Z,101062.11
2019-02-25T15:49:24.011Z,101062.35
2019-02-25T15:51:52.774Z,101063.55
2019-02-25T15:54:21.500Z,101066.03
2019-02-25T15:56:50.251Z,101069.89
2019-02-25T15:59:19.066Z,101072.18
2019-02-25T16:01:48.153Z,101069.06
2019-02-25T16:04:16.843Z,101073.05
2019-02-25T16:06:45.664Z,101073.29
2019-02-25T16:09:17.073Z,101080.94
2019-02-25T16:11:47.388Z,101079.91
2019-02-25T16:14:16.219Z,101072.89
2019-02-25T16:16:45.004Z,101077.97
2019-02-25T16:19:13.697Z,101079.92
2019-02-25T16:21:42.558Z,101076.99
2019-02-25T16:24:12.297Z,101074.57
2019-02-25T16:26:42.778Z,101072.47
2019-02-25T16:29:13.453Z,101074.98
2019-02-25T16:31:42.415Z,101074.05
2019-02-25T16:34:12.057Z,101079.70
2019-02-25T16:36:41.676Z,101079.44
2019-02-25T16:39:10.403Z,101082.31
2019-02-25T16:41:41.758Z,101085.70
2019-02-25T16:44:10.270Z,101085.80
2019-02-25T16:46:41.202Z,101079.15
2019-02-25T16:49:09.449Z,101076.25
2019-02-25T16:51:38.526Z,101085.40
2019-02-25T16:54:11.066Z,101085.40
2019-02-25T16:56:37.850Z,101076.48
2019-02-25T16:59:10.732Z,101080.55
2019-02-25T17:01:39.300Z,101071.93
2019-02-25T17:04:07.453Z,101078.19
2019-02-25T17:06:36.928Z,101077.78
2019-02-25T17:09:07.139Z,101083.13
2019-02-25T17:11:37.930Z,101087.63
2019-02-25T17:14:06.504Z,101085.14
2019-02-25T17:16:35.228Z,101080.20
2019-02-25T17:19:05.624Z,101072.44
2019-02-25T17:21:34.507Z,101082.66
2019-02-25T17:24:05.208Z,101076.12
2019-02-25T17:26:33.688Z,101077.22
2019-02-25T17:29:02.587Z,101075.21
2019-02-25T17:31:32.275Z,101072.84
2019-02-25T17:34:01.830Z,101066.61
2019-02-25T17:36:31.019Z,101046.14
2019-02-25T17:38:59.747Z,101046.06
2019-02-25T17:41:28.501Z,101046.06
2019-02-25T17:43:59.227Z,101042.57
2019-02-25T17:46:28.775Z,101035.36
2019-02-25T17:48:58.677Z,101028.31
2019-02-25T17:51:27.577Z,101020.89
2019-02-25T17:53:56.583Z,101010.47
2019-02-25T17:56:26.987Z,101016.80
2019-02-25T17:58:56.156Z,101017.31
2019-02-25T18:01:26.292Z,101012.45
2019-02-25T18:03:55.440Z,101002.95
2019-02-25T18:06:29.560Z,100994.98
2019-02-25T18:08:55.389Z,100995.16
2019-02-25T18:11:25.365Z,100993.86
2019-02-25T18:13:55.702Z,100990.70
2019-02-25T18:16:24.635Z,100981.19
2019-02-25T18:18:54.471Z,100985.53
2019-02-25T18:21:28.152Z,100986.01
2019-02-25T18:23:54.630Z,100975.72
2019-02-25T18:26:28.578Z,100973.84
2019-02-25T18:28:57.017Z,100976.77
2019-02-25T18:31:26.030Z,100968.39
2019-02-25T18:33:54.756Z,100968.13
2019-02-25T18:36:26.305Z,100968.48
2019-02-25T18:38:54.937Z,100971.92
2019-02-25T18:41:25.415Z,100965.97
2019-02-25T18:43:54.938Z,100959.70
2019-02-25T18:46:25.111Z,100961.05
2019-02-25T18:48:54.303Z,100955.77
2019-02-25T18:51:24.632Z,100954.45
2019-02-25T18:53:54.879Z,100948.97
2019-02-25T18:56:24.264Z,100943.94
2019-02-25T18:58:53.773Z,100947.80
2019-02-25T19:01:23.605Z,100951.11
2019-02-25T19:03:54.308Z,100952.28
2019-02-25T19:06:24.019Z,100951.41
2019-02-25T19:08:55.611Z,100946.15
2019-02-25T19:11:25.930Z,100939.38
2019-02-25T19:13:56.638Z,100941.72
2019-02-25T19:16:25.364Z,100937.38
2019-02-25T19:18:54.095Z,100942.20
2019-02-25T19:21:24.989Z,100932.15
2019-02-25T19:23:53.767Z,100917.41
2019-02-25T19:26:22.509Z,100913.41
2019-02-25T19:28:52.495Z,100905.52
2019-02-25T19:31:23.913Z,100901.98
2019-02-25T19:33:52.226Z,100901.98
2019-02-25T19:36:21.126Z,100891.67
2019-02-25T19:38:50.325Z,100880.79
2019-02-25T19:41:20.686Z,100884.10
2019-02-25T19:43:58.674Z,100881.39
2019-02-25T19:46:20.023Z,100874.27
2019-02-25T19:48:49.779Z,100873.22
2019-02-25T19:51:20.716Z,100879.37
2019-02-25T19:53:50.082Z,100875.69
2019-02-25T19:56:18.828Z,100879.05
2019-02-25T19:58:47.717Z,100874.97
2019-02-25T20:01:16.472Z,100870.43
2019-02-25T20:03:47.592Z,100864.48
2019-02-25T20:06:18.566Z,100855.89
2019-02-25T20:08:48.577Z,100855.09
2019-02-25T20:11:17.126Z,100858.35
2019-02-25T20:13:46.001Z,100857.47
2019-02-25T20:16:18.001Z,100854.03
2019-02-25T20:18:45.595Z,100852.39
2019-02-25T20:21:14.495Z,100849.48
2019-02-25T20:23:44.887Z,100831.28
2019-02-25T20:26:15.304Z,100831.28
2019-02-25T20:28:46.178Z,100830.17
2019-02-25T20:31:16.639Z,100827.52
2019-02-25T20:33:45.156Z,100833.79
2019-02-25T20:36:17.158Z,100824.77
2019-02-25T20:38:44.415Z,100815.58
2019-02-25T20:41:16.038Z,100813.79
2019-02-25T20:43:44.519Z,100806.96
2019-02-25T20:46:14.101Z,100807.64
2019-02-25T20:48:46.478Z,100807.64
2019-02-25T20:51:13.518Z,100803.13
2019-02-25T20:53:42.248Z,100803.41
2019-02-25T20:56:11.010Z,100796.23
2019-02-25T20:58:40.205Z,100794.77
2019-02-25T21:01:12.076Z,100793.53
2019-02-25T21:03:43.870Z,100786.14
2019-02-25T21:06:12.686Z,100781.49
2019-02-25T21:08:42.753Z,100780.09
2019-02-25T21:11:13.359Z,100773.86
2019-02-25T21:13:43.082Z,100764.98
2019-02-25T21:16:11.825Z,100760.77
2019-02-25T21:18:40.557Z,100753.29
2019-02-25T21:21:11.731Z,100753.52
2019-02-25T21:23:39.908Z,100745.41
2019-02-25T21:26:09.314Z,100732.43
2019-02-25T21:28:40.460Z,100721.77
2019-02-25T21:31:13.801Z,100721.42
2019-02-25T21:33:44.997Z,100724.23
2019-02-25T21:36:11.057Z,100726.95
2019-02-25T21:38:39.792Z,100719.22
2019-02-25T21:41:09.127Z,100726.66
2019-02-25T21:43:43.332Z,100718.67
2019-02-25T21:46:10.096Z,100723.16
2019-02-25T21:48:38.832Z,100710.69
2019-02-25T21:51:09.613Z,100713.59
2019-02-25T21:53:38.088Z,100709.47
2019-02-25T21:56:06.829Z,100706.38
2019-02-25T21:58:36.059Z,100709.31
2019-02-25T22:01:04.793Z,100700.94
2019-02-25T22:03:36.952Z,100690.20
2019-02-25T22:06:04.895Z,100698.61
2019-02-25T22:08:36.109Z,100706.38
2019-02-25T22:11:12.593Z,100702.83
2019-02-25T22:13:37.844Z,100707.23
2019-02-25T22:16:08.015Z,100713.65
2019-02-25T22:18:38.357Z,100713.65
2019-02-25T22:21:09.235Z,100719.69
2019-02-25T22:23:37.621Z,100718.57
2019-02-25T22:26:06.359Z,100706.79
2019-02-25T22:28:37.025Z,100706.79
2019-02-25T22:31:07.925Z,100713.77
2019-02-25T22:33:36.033Z,100697.97
2019-02-25T22:36:05.516Z,100693.41
2019-02-25T22:38:34.255Z,100688.12
2019-02-25T22:41:02.974Z,100689.20
2019-02-25T22:43:32.199Z,100684.70
2019-02-25T22:46:02.486Z,100687.20
2019-02-25T22:48:31.362Z,100686.11
2019-02-25T22:51:02.632Z,100679.82
2019-02-25T22:53:32.322Z,100679.50
2019-02-25T22:56:01.047Z,100675.66
2019-02-25T22:58:31.583Z,100662.16
2019-02-25T23:01:14.737Z,100653.63
2019-02-25T23:03:44.913Z,100662.36
2019-02-25T23:06:13.952Z,100669.72
2019-02-25T23:08:44.243Z,100664.44
2019-02-25T23:11:14.367Z,100663.28
2019-02-25T23:13:45.707Z,100669.41
2019-02-25T23:16:15.631Z,100666.84
2019-02-25T23:18:44.986Z,100672.17
2019-02-25T23:21:23.174Z,100673.05
2019-02-25T23:23:44.080Z,100674.97
2019-02-25T23:26:14.702Z,100680.39
2019-02-25T23:28:43.303Z,100684.43
2019-02-25T23:31:16.329Z,100681.98
2019-02-25T23:33:47.253Z,100690.76
2019-02-25T23:36:17.577Z,100693.20
2019-02-25T23:38:46.433Z,100685.50
2019-02-25T23:41:16.676Z,100689.80
2019-02-25T23:43:48.322Z,100685.53
2019-02-25T23:46:15.891Z,100673.75
2019-02-25T23:48:46.508Z,100675.70
2019-02-25T23:51:17.253Z,100678.68
2019-02-25T23:53:46.537Z,100674.55
2019-02-25T23:56:18.944Z,100677.27
2019-02-25T23:58:47.973Z,100678.56
